sensor_id;sensor_type;location;lat;lon;timestamp;P1;durP1;ratioP1;P2;durP2;ratioP2
16640;SDS011;8434;47.990;7.880;2022-10-16T00:01:46;1.33;;;0.90;;
16640;SDS011;8434;47.990;7.880;2022-10-16T00:04:31;2.90;;;1.20;;
16640;SDS011;8434;47.990;7.880;2022-10-16T00:07:17;2.90;;;1.10;;
16640;SDS011;8434;47.990;7.880;2022-10-16T00:10:02;8.83;;;1.50;;
16640;SDS011;8434;47.990;7.880;2022-10-16T00:12:47;2.13;;;1.13;;
16640;SDS011;8434;47.990;7.880;2022-10-16T00:15:32;3.77;;;1.23;;
16640;SDS011;8434;47.990;7.880;2022-10-16T00:18:19;1.80;;;1.20;;
16640;SDS011;8434;47.990;7.880;2022-10-16T00:21:05;2.50;;;0.90;;
16640;SDS011;8434;47.990;7.880;2022-10-16T00:23:52;2.10;;;1.10;;
16640;SDS011;8434;47.990;7.880;2022-10-16T00:26:38;4.83;;;0.97;;
16640;SDS011;8434;47.990;7.880;2022-10-16T00:29:23;1.37;;;0.70;;
16640;SDS011;8434;47.990;7.880;2022-10-16T00:32:08;5.30;;;1.03;;
16640;SDS011;8434;47.990;7.880;2022-10-16T00:34:53;3.53;;;1.10;;
16640;SDS011;8434;47.990;7.880;2022-10-16T00:37:39;2.57;;;0.83;;
16640;SDS011;8434;47.990;7.880;2022-10-16T00:40:25;0.70;;;0.70;;
16640;SDS011;8434;47.990;7.880;2022-10-16T00:43:32;1.10;;;1.00;;
16640;SDS011;8434;47.990;7.880;2022-10-16T00:46:17;4.63;;;1.00;;
16640;SDS011;8434;47.990;7.880;2022-10-16T00:49:04;5.00;;;1.10;;
16640;SDS011;8434;47.990;7.880;2022-10-16T00:51:50;2.83;;;1.00;;
16640;SDS011;8434;47.990;7.880;2022-10-16T00:54:36;2.67;;;0.90;;
16640;SDS011;8434;47.990;7.880;2022-10-16T00:57:22;10.40;;;1.50;;
16640;SDS011;8434;47.990;7.880;2022-10-16T01:00:08;5.00;;;0.90;;
16640;SDS011;8434;47.990;7.880;2022-10-16T01:02:54;1.87;;;0.93;;
16640;SDS011;8434;47.990;7.880;2022-10-16T01:05:49;4.83;;;1.10;;
16640;SDS011;8434;47.990;7.880;2022-10-16T01:08:39;4.23;;;0.90;;
16640;SDS011;8434;47.990;7.880;2022-10-16T01:11:30;3.90;;;1.20;;
16640;SDS011;8434;47.990;7.880;2022-10-16T01:14:21;1.03;;;0.80;;
16640;SDS011;8434;47.990;7.880;2022-10-16T01:17:09;3.67;;;1.00;;
16640;SDS011;8434;47.990;7.880;2022-10-16T01:20:01;4.37;;;0.93;;
16640;SDS011;8434;47.990;7.880;2022-10-16T01:22:56;2.73;;;1.00;;
16640;SDS011;8434;47.990;7.880;2022-10-16T01:25:50;2.97;;;0.97;;
16640;SDS011;8434;47.990;7.880;2022-10-16T01:28:38;2.87;;;0.93;;
16640;SDS011;8434;47.990;7.880;2022-10-16T01:31:25;2.80;;;0.83;;
16640;SDS011;8434;47.990;7.880;2022-10-16T01:34:12;3.93;;;0.80;;
16640;SDS011;8434;47.990;7.880;2022-10-16T01:37:05;5.30;;;1.03;;
16640;SDS011;8434;47.990;7.880;2022-10-16T01:39:50;4.67;;;1.67;;
16640;SDS011;8434;47.990;7.880;2022-10-16T01:42:39;6.37;;;1.90;;
16640;SDS011;8434;47.990;7.880;2022-10-16T01:45:27;5.10;;;1.10;;
16640;SDS011;8434;47.990;7.880;2022-10-16T01:48:13;2.73;;;1.20;;
16640;SDS011;8434;47.990;7.880;2022-10-16T01:50:59;1.40;;;0.97;;
16640;SDS011;8434;47.990;7.880;2022-10-16T01:53:46;2.90;;;1.20;;
16640;SDS011;8434;47.990;7.880;2022-10-16T01:56:32;5.33;;;1.20;;
16640;SDS011;8434;47.990;7.880;2022-10-16T01:59:18;2.40;;;1.00;;
16640;SDS011;8434;47.990;7.880;2022-10-16T02:02:06;2.27;;;1.00;;
16640;SDS011;8434;47.990;7.880;2022-10-16T02:04:53;4.63;;;1.23;;
16640;SDS011;8434;47.990;7.880;2022-10-16T02:07:39;3.20;;;1.00;;
16640;SDS011;8434;47.990;7.880;2022-10-16T02:10:25;1.60;;;1.10;;
16640;SDS011;8434;47.990;7.880;2022-10-16T02:13:15;2.07;;;1.03;;
16640;SDS011;8434;47.990;7.880;2022-10-16T02:16:01;4.23;;;1.10;;
16640;SDS011;8434;47.990;7.880;2022-10-16T02:18:47;3.17;;;1.23;;
16640;SDS011;8434;47.990;7.880;2022-10-16T02:21:34;1.20;;;1.03;;
16640;SDS011;8434;47.990;7.880;2022-10-16T02:24:24;5.00;;;1.43;;
16640;SDS011;8434;47.990;7.880;2022-10-16T02:27:16;2.10;;;1.07;;
16640;SDS011;8434;47.990;7.880;2022-10-16T02:30:05;4.50;;;1.17;;
16640;SDS011;8434;47.990;7.880;2022-10-16T02:32:52;4.40;;;1.30;;
16640;SDS011;8434;47.990;7.880;2022-10-16T02:35:39;5.03;;;1.00;;
16640;SDS011;8434;47.990;7.880;2022-10-16T02:38:25;10.00;;;1.70;;
16640;SDS011;8434;47.990;7.880;2022-10-16T02:41:10;4.10;;;1.27;;
16640;SDS011;8434;47.990;7.880;2022-10-16T02:43:55;2.70;;;1.40;;
16640;SDS011;8434;47.990;7.880;2022-10-16T02:46:40;3.93;;;1.80;;
16640;SDS011;8434;47.990;7.880;2022-10-16T02:49:25;3.43;;;1.10;;
16640;SDS011;8434;47.990;7.880;2022-10-16T02:52:11;4.57;;;1.30;;
16640;SDS011;8434;47.990;7.880;2022-10-16T02:54:56;6.93;;;1.70;;
16640;SDS011;8434;47.990;7.880;2022-10-16T02:57:41;3.77;;;1.40;;
16640;SDS011;8434;47.990;7.880;2022-10-16T03:00:26;9.70;;;1.40;;
16640;SDS011;8434;47.990;7.880;2022-10-16T03:03:12;9.97;;;2.03;;
16640;SDS011;8434;47.990;7.880;2022-10-16T03:05:57;3.60;;;1.20;;
16640;SDS011;8434;47.990;7.880;2022-10-16T03:08:43;1.53;;;1.20;;
16640;SDS011;8434;47.990;7.880;2022-10-16T03:11:28;2.60;;;1.53;;
16640;SDS011;8434;47.990;7.880;2022-10-16T03:14:13;2.40;;;1.30;;
16640;SDS011;8434;47.990;7.880;2022-10-16T03:16:58;4.00;;;1.20;;
16640;SDS011;8434;47.990;7.880;2022-10-16T03:19:43;2.93;;;1.40;;
16640;SDS011;8434;47.990;7.880;2022-10-16T03:22:27;6.27;;;1.57;;
16640;SDS011;8434;47.990;7.880;2022-10-16T03:25:14;3.47;;;1.30;;
16640;SDS011;8434;47.990;7.880;2022-10-16T03:27:59;5.03;;;1.33;;
16640;SDS011;8434;47.990;7.880;2022-10-16T03:30:43;3.63;;;1.37;;
16640;SDS011;8434;47.990;7.880;2022-10-16T03:33:28;3.37;;;1.30;;
16640;SDS011;8434;47.990;7.880;2022-10-16T03:36:13;3.20;;;1.20;;
16640;SDS011;8434;47.990;7.880;2022-10-16T03:38:58;4.40;;;1.23;;
16640;SDS011;8434;47.990;7.880;2022-10-16T03:41:44;1.53;;;1.10;;
16640;SDS011;8434;47.990;7.880;2022-10-16T03:44:30;3.80;;;1.13;;
16640;SDS011;8434;47.990;7.880;2022-10-16T03:47:15;1.63;;;1.17;;
16640;SDS011;8434;47.990;7.880;2022-10-16T03:50:04;4.77;;;2.10;;
16640;SDS011;8434;47.990;7.880;2022-10-16T03:52:49;4.97;;;1.43;;
16640;SDS011;8434;47.990;7.880;2022-10-16T03:55:34;3.60;;;1.77;;
16640;SDS011;8434;47.990;7.880;2022-10-16T03:58:21;2.83;;;1.50;;
16640;SDS011;8434;47.990;7.880;2022-10-16T04:01:06;7.73;;;1.43;;
16640;SDS011;8434;47.990;7.880;2022-10-16T04:03:50;6.20;;;1.23;;
16640;SDS011;8434;47.990;7.880;2022-10-16T04:06:35;4.27;;;1.80;;
16640;SDS011;8434;47.990;7.880;2022-10-16T04:09:21;3.07;;;1.70;;
16640;SDS011;8434;47.990;7.880;2022-10-16T04:12:05;1.90;;;1.80;;
16640;SDS011;8434;47.990;7.880;2022-10-16T04:14:52;4.30;;;1.40;;
16640;SDS011;8434;47.990;7.880;2022-10-16T04:17:36;4.73;;;1.30;;
16640;SDS011;8434;47.990;7.880;2022-10-16T04:20:21;3.37;;;1.40;;
16640;SDS011;8434;47.990;7.880;2022-10-16T04:23:06;7.50;;;1.50;;
16640;SDS011;8434;47.990;7.880;2022-10-16T04:25:51;4.97;;;1.40;;
16640;SDS011;8434;47.990;7.880;2022-10-16T04:28:36;1.73;;;1.30;;
16640;SDS011;8434;47.990;7.880;2022-10-16T04:31:22;4.23;;;1.20;;
16640;SDS011;8434;47.990;7.880;2022-10-16T04:34:07;1.43;;;1.33;;
16640;SDS011;8434;47.990;7.880;2022-10-16T04:36:52;5.47;;;1.70;;
16640;SDS011;8434;47.990;7.880;2022-10-16T04:39:37;2.63;;;1.40;;
16640;SDS011;8434;47.990;7.880;2022-10-16T04:42:21;3.70;;;1.60;;
16640;SDS011;8434;47.990;7.880;2022-10-16T04:45:07;5.53;;;1.50;;
16640;SDS011;8434;47.990;7.880;2022-10-16T04:47:56;2.17;;;1.50;;
16640;SDS011;8434;47.990;7.880;2022-10-16T04:50:41;3.77;;;1.40;;
16640;SDS011;8434;47.990;7.880;2022-10-16T04:53:26;2.93;;;1.37;;
16640;SDS011;8434;47.990;7.880;2022-10-16T04:56:11;5.00;;;1.50;;
16640;SDS011;8434;47.990;7.880;2022-10-16T04:58:56;2.33;;;1.60;;
16640;SDS011;8434;47.990;7.880;2022-10-16T05:01:41;2.67;;;1.40;;
16640;SDS011;8434;47.990;7.880;2022-10-16T05:04:27;3.33;;;1.80;;
16640;SDS011;8434;47.990;7.880;2022-10-16T05:07:12;5.03;;;1.83;;
16640;SDS011;8434;47.990;7.880;2022-10-16T05:09:57;6.43;;;1.63;;
16640;SDS011;8434;47.990;7.880;2022-10-16T05:12:42;2.40;;;1.30;;
16640;SDS011;8434;47.990;7.880;2022-10-16T05:15:27;7.10;;;1.60;;
16640;SDS011;8434;47.990;7.880;2022-10-16T05:18:12;4.23;;;1.50;;
16640;SDS011;8434;47.990;7.880;2022-10-16T05:20:58;6.87;;;2.23;;
16640;SDS011;8434;47.990;7.880;2022-10-16T05:23:43;4.83;;;1.43;;
16640;SDS011;8434;47.990;7.880;2022-10-16T05:26:28;3.37;;;1.30;;
16640;SDS011;8434;47.990;7.880;2022-10-16T05:29:13;4.13;;;1.47;;
16640;SDS011;8434;47.990;7.880;2022-10-16T05:31:58;6.53;;;1.87;;
16640;SDS011;8434;47.990;7.880;2022-10-16T05:34:43;3.70;;;1.70;;
16640;SDS011;8434;47.990;7.880;2022-10-16T05:37:29;7.17;;;2.23;;
16640;SDS011;8434;47.990;7.880;2022-10-16T05:40:14;2.83;;;1.50;;
16640;SDS011;8434;47.990;7.880;2022-10-16T05:42:59;7.93;;;1.80;;
16640;SDS011;8434;47.990;7.880;2022-10-16T05:45:44;7.10;;;1.80;;
16640;SDS011;8434;47.990;7.880;2022-10-16T05:48:29;2.77;;;1.60;;
16640;SDS011;8434;47.990;7.880;2022-10-16T05:51:14;3.57;;;1.50;;
16640;SDS011;8434;47.990;7.880;2022-10-16T05:54:01;4.13;;;1.57;;
16640;SDS011;8434;47.990;7.880;2022-10-16T05:56:45;2.67;;;1.50;;
16640;SDS011;8434;47.990;7.880;2022-10-16T05:59:30;5.57;;;2.27;;
16640;SDS011;8434;47.990;7.880;2022-10-16T06:02:15;3.60;;;1.40;;
16640;SDS011;8434;47.990;7.880;2022-10-16T06:05:01;3.17;;;1.43;;
16640;SDS011;8434;47.990;7.880;2022-10-16T06:07:45;2.83;;;1.40;;
16640;SDS011;8434;47.990;7.880;2022-10-16T06:10:32;8.83;;;1.60;;
16640;SDS011;8434;47.990;7.880;2022-10-16T06:13:16;3.47;;;1.53;;
16640;SDS011;8434;47.990;7.880;2022-10-16T06:16:02;3.50;;;1.80;;
16640;SDS011;8434;47.990;7.880;2022-10-16T06:18:50;5.13;;;1.53;;
16640;SDS011;8434;47.990;7.880;2022-10-16T06:21:35;9.83;;;1.87;;
16640;SDS011;8434;47.990;7.880;2022-10-16T06:24:20;3.03;;;1.50;;
16640;SDS011;8434;47.990;7.880;2022-10-16T06:27:06;3.27;;;1.63;;
16640;SDS011;8434;47.990;7.880;2022-10-16T06:29:51;5.33;;;1.50;;
16640;SDS011;8434;47.990;7.880;2022-10-16T06:32:36;3.30;;;1.77;;
16640;SDS011;8434;47.990;7.880;2022-10-16T06:35:21;5.90;;;1.77;;
16640;SDS011;8434;47.990;7.880;2022-10-16T06:38:06;5.07;;;1.63;;
16640;SDS011;8434;47.990;7.880;2022-10-16T06:40:50;5.80;;;1.83;;
16640;SDS011;8434;47.990;7.880;2022-10-16T06:43:39;5.37;;;1.57;;
16640;SDS011;8434;47.990;7.880;2022-10-16T06:46:24;2.60;;;1.60;;
16640;SDS011;8434;47.990;7.880;2022-10-16T06:49:09;7.30;;;1.50;;
16640;SDS011;8434;47.990;7.880;2022-10-16T06:51:54;8.13;;;1.80;;
16640;SDS011;8434;47.990;7.880;2022-10-16T06:54:39;9.30;;;2.80;;
16640;SDS011;8434;47.990;7.880;2022-10-16T06:57:24;2.77;;;1.47;;
16640;SDS011;8434;47.990;7.880;2022-10-16T07:00:11;6.87;;;1.73;;
16640;SDS011;8434;47.990;7.880;2022-10-16T07:02:56;5.27;;;1.60;;
16640;SDS011;8434;47.990;7.880;2022-10-16T07:05:41;3.50;;;1.40;;
16640;SDS011;8434;47.990;7.880;2022-10-16T07:08:27;3.17;;;1.43;;
16640;SDS011;8434;47.990;7.880;2022-10-16T07:11:13;6.37;;;1.50;;
16640;SDS011;8434;47.990;7.880;2022-10-16T07:13:58;6.83;;;1.80;;
16640;SDS011;8434;47.990;7.880;2022-10-16T07:16:45;4.83;;;2.40;;
16640;SDS011;8434;47.990;7.880;2022-10-16T07:19:30;2.50;;;1.53;;
16640;SDS011;8434;47.990;7.880;2022-10-16T07:22:15;5.43;;;1.43;;
16640;SDS011;8434;47.990;7.880;2022-10-16T07:25:00;7.03;;;1.57;;
16640;SDS011;8434;47.990;7.880;2022-10-16T07:27:45;5.70;;;1.57;;
16640;SDS011;8434;47.990;7.880;2022-10-16T07:30:30;6.53;;;1.70;;
16640;SDS011;8434;47.990;7.880;2022-10-16T07:33:16;3.17;;;1.60;;
16640;SDS011;8434;47.990;7.880;2022-10-16T07:36:01;5.87;;;1.67;;
16640;SDS011;8434;47.990;7.880;2022-10-16T07:38:46;6.83;;;2.23;;
16640;SDS011;8434;47.990;7.880;2022-10-16T07:41:31;3.70;;;1.90;;
16640;SDS011;8434;47.990;7.880;2022-10-16T07:44:20;3.50;;;1.77;;
16640;SDS011;8434;47.990;7.880;2022-10-16T07:47:05;5.83;;;1.80;;
16640;SDS011;8434;47.990;7.880;2022-10-16T07:49:51;7.47;;;2.17;;
16640;SDS011;8434;47.990;7.880;2022-10-16T07:52:36;4.67;;;1.80;;
16640;SDS011;8434;47.990;7.880;2022-10-16T07:55:20;3.87;;;1.30;;
16640;SDS011;8434;47.990;7.880;2022-10-16T07:58:05;5.70;;;1.60;;
16640;SDS011;8434;47.990;7.880;2022-10-16T08:00:51;7.67;;;1.77;;
16640;SDS011;8434;47.990;7.880;2022-10-16T08:03:36;2.60;;;1.53;;
16640;SDS011;8434;47.990;7.880;2022-10-16T08:06:23;4.00;;;1.37;;
16640;SDS011;8434;47.990;7.880;2022-10-16T08:09:08;3.37;;;1.60;;
16640;SDS011;8434;47.990;7.880;2022-10-16T08:11:53;5.17;;;1.80;;
16640;SDS011;8434;47.990;7.880;2022-10-16T08:14:38;8.27;;;1.43;;
16640;SDS011;8434;47.990;7.880;2022-10-16T08:17:23;4.30;;;1.67;;
16640;SDS011;8434;47.990;7.880;2022-10-16T08:20:08;5.03;;;3.13;;
16640;SDS011;8434;47.990;7.880;2022-10-16T08:22:55;3.87;;;2.43;;
16640;SDS011;8434;47.990;7.880;2022-10-16T08:25:40;5.90;;;2.77;;
16640;SDS011;8434;47.990;7.880;2022-10-16T08:28:25;6.57;;;2.30;;
16640;SDS011;8434;47.990;7.880;2022-10-16T08:31:11;6.03;;;1.97;;
16640;SDS011;8434;47.990;7.880;2022-10-16T08:33:56;2.70;;;1.53;;
16640;SDS011;8434;47.990;7.880;2022-10-16T08:36:41;2.47;;;1.70;;
16640;SDS011;8434;47.990;7.880;2022-10-16T08:39:27;5.07;;;1.67;;
16640;SDS011;8434;47.990;7.880;2022-10-16T08:42:21;6.53;;;1.63;;
16640;SDS011;8434;47.990;7.880;2022-10-16T08:45:15;3.87;;;1.80;;
16640;SDS011;8434;47.990;7.880;2022-10-16T08:48:06;1.53;;;1.43;;
16640;SDS011;8434;47.990;7.880;2022-10-16T08:50:53;2.17;;;1.30;;
16640;SDS011;8434;47.990;7.880;2022-10-16T08:56:34;10.00;;;2.50;;
16640;SDS011;8434;47.990;7.880;2022-10-16T08:59:19;3.60;;;2.40;;
16640;SDS011;8434;47.990;7.880;2022-10-16T09:02:08;4.40;;;2.30;;
16640;SDS011;8434;47.990;7.880;2022-10-16T09:05:10;4.53;;;1.93;;
16640;SDS011;8434;47.990;7.880;2022-10-16T09:08:03;5.00;;;2.77;;
16640;SDS011;8434;47.990;7.880;2022-10-16T09:10:49;3.93;;;2.30;;
16640;SDS011;8434;47.990;7.880;2022-10-16T09:13:43;7.13;;;2.97;;
16640;SDS011;8434;47.990;7.880;2022-10-16T09:16:30;5.03;;;1.90;;
16640;SDS011;8434;47.990;7.880;2022-10-16T09:19:19;3.17;;;1.90;;
16640;SDS011;8434;47.990;7.880;2022-10-16T09:22:09;7.37;;;2.53;;
16640;SDS011;8434;47.990;7.880;2022-10-16T09:24:55;3.37;;;1.80;;
16640;SDS011;8434;47.990;7.880;2022-10-16T09:27:44;6.47;;;1.70;;
16640;SDS011;8434;47.990;7.880;2022-10-16T09:30:31;2.10;;;1.67;;
16640;SDS011;8434;47.990;7.880;2022-10-16T09:33:17;3.53;;;1.40;;
16640;SDS011;8434;47.990;7.880;2022-10-16T09:36:03;2.25;;;1.55;;
16640;SDS011;8434;47.990;7.880;2022-10-16T09:38:49;5.10;;;1.50;;
16640;SDS011;8434;47.990;7.880;2022-10-16T09:41:37;2.95;;;1.23;;
16640;SDS011;8434;47.990;7.880;2022-10-16T09:44:24;2.92;;;1.27;;
16640;SDS011;8434;47.990;7.880;2022-10-16T09:47:15;2.63;;;1.17;;
16640;SDS011;8434;47.990;7.880;2022-10-16T09:50:02;3.33;;;1.10;;
16640;SDS011;8434;47.990;7.880;2022-10-16T09:52:49;2.35;;;1.20;;
16640;SDS011;8434;47.990;7.880;2022-10-16T09:55:34;2.40;;;1.30;;
16640;SDS011;8434;47.990;7.880;2022-10-16T09:58:21;7.53;;;1.25;;
16640;SDS011;8434;47.990;7.880;2022-10-16T10:01:11;4.63;;;1.10;;
16640;SDS011;8434;47.990;7.880;2022-10-16T10:03:58;2.35;;;1.08;;
16640;SDS011;8434;47.990;7.880;2022-10-16T10:06:46;1.90;;;0.95;;
16640;SDS011;8434;47.990;7.880;2022-10-16T10:09:32;3.60;;;1.30;;
16640;SDS011;8434;47.990;7.880;2022-10-16T10:12:20;2.33;;;1.02;;
16640;SDS011;8434;47.990;7.880;2022-10-16T10:15:06;1.23;;;1.00;;
16640;SDS011;8434;47.990;7.880;2022-10-16T10:17:53;3.58;;;1.05;;
16640;SDS011;8434;47.990;7.880;2022-10-16T10:20:39;2.95;;;1.10;;
16640;SDS011;8434;47.990;7.880;2022-10-16T10:23:25;2.03;;;0.90;;
16640;SDS011;8434;47.990;7.880;2022-10-16T10:26:11;2.75;;;0.93;;
16640;SDS011;8434;47.990;7.880;2022-10-16T10:28:59;1.88;;;0.90;;
16640;SDS011;8434;47.990;7.880;2022-10-16T10:31:47;3.20;;;1.17;;
16640;SDS011;8434;47.990;7.880;2022-10-16T10:37:46;3.60;;;1.05;;
16640;SDS011;8434;47.990;7.880;2022-10-16T10:40:38;2.70;;;1.08;;
16640;SDS011;8434;47.990;7.880;2022-10-16T10:43:28;1.92;;;0.80;;
16640;SDS011;8434;47.990;7.880;2022-10-16T10:46:17;1.42;;;0.90;;
16640;SDS011;8434;47.990;7.880;2022-10-16T10:49:10;1.55;;;1.10;;
16640;SDS011;8434;47.990;7.880;2022-10-16T10:52:02;5.13;;;1.10;;
16640;SDS011;8434;47.990;7.880;2022-10-16T10:54:55;1.98;;;1.10;;
16640;SDS011;8434;47.990;7.880;2022-10-16T10:57:43;1.83;;;0.90;;
16640;SDS011;8434;47.990;7.880;2022-10-16T11:00:34;3.67;;;1.15;;
16640;SDS011;8434;47.990;7.880;2022-10-16T11:03:28;1.10;;;1.00;;
16640;SDS011;8434;47.990;7.880;2022-10-16T11:06:16;1.92;;;1.10;;
16640;SDS011;8434;47.990;7.880;2022-10-16T11:09:03;1.85;;;1.02;;
16640;SDS011;8434;47.990;7.880;2022-10-16T11:11:55;1.13;;;0.90;;
16640;SDS011;8434;47.990;7.880;2022-10-16T11:14:43;4.32;;;1.00;;
16640;SDS011;8434;47.990;7.880;2022-10-16T11:17:32;1.05;;;0.90;;
16640;SDS011;8434;47.990;7.880;2022-10-16T11:20:21;1.10;;;0.80;;
16640;SDS011;8434;47.990;7.880;2022-10-16T11:23:10;2.00;;;0.88;;
16640;SDS011;8434;47.990;7.880;2022-10-16T11:25:57;2.90;;;1.20;;
16640;SDS011;8434;47.990;7.880;2022-10-16T11:28:46;1.95;;;1.05;;
16640;SDS011;8434;47.990;7.880;2022-10-16T11:31:34;1.77;;;1.30;;
16640;SDS011;8434;47.990;7.880;2022-10-16T11:34:22;1.33;;;1.05;;
16640;SDS011;8434;47.990;7.880;2022-10-16T11:37:10;1.83;;;0.90;;
16640;SDS011;8434;47.990;7.880;2022-10-16T11:39:57;1.10;;;1.00;;
16640;SDS011;8434;47.990;7.880;2022-10-16T11:42:46;1.27;;;0.80;;
16640;SDS011;8434;47.990;7.880;2022-10-16T11:45:36;1.27;;;1.17;;
16640;SDS011;8434;47.990;7.880;2022-10-16T11:48:25;1.17;;;1.00;;
16640;SDS011;8434;47.990;7.880;2022-10-16T11:51:14;2.85;;;1.30;;
16640;SDS011;8434;47.990;7.880;2022-10-16T11:54:02;1.75;;;1.05;;
16640;SDS011;8434;47.990;7.880;2022-10-16T11:56:50;1.10;;;1.00;;
16640;SDS011;8434;47.990;7.880;2022-10-16T11:59:37;2.03;;;1.30;;
16640;SDS011;8434;47.990;7.880;2022-10-16T12:02:32;2.50;;;1.00;;
16640;SDS011;8434;47.990;7.880;2022-10-16T12:05:22;1.85;;;1.10;;
16640;SDS011;8434;47.990;7.880;2022-10-16T12:08:09;1.02;;;0.88;;
16640;SDS011;8434;47.990;7.880;2022-10-16T12:11:03;1.30;;;0.90;;
16640;SDS011;8434;47.990;7.880;2022-10-16T12:13:51;2.65;;;1.15;;
16640;SDS011;8434;47.990;7.880;2022-10-16T12:16:37;2.03;;;0.90;;
16640;SDS011;8434;47.990;7.880;2022-10-16T12:19:24;3.47;;;1.40;;
16640;SDS011;8434;47.990;7.880;2022-10-16T12:22:15;2.80;;;1.10;;
16640;SDS011;8434;47.990;7.880;2022-10-16T12:25:02;3.30;;;1.40;;
16640;SDS011;8434;47.990;7.880;2022-10-16T12:27:53;2.80;;;1.40;;
16640;SDS011;8434;47.990;7.880;2022-10-16T12:30:38;1.20;;;1.00;;
16640;SDS011;8434;47.990;7.880;2022-10-16T12:33:26;0.90;;;0.82;;
16640;SDS011;8434;47.990;7.880;2022-10-16T12:36:13;2.10;;;1.17;;
16640;SDS011;8434;47.990;7.880;2022-10-16T12:39:00;3.42;;;1.00;;
16640;SDS011;8434;47.990;7.880;2022-10-16T12:41:45;2.75;;;1.20;;
16640;SDS011;8434;47.990;7.880;2022-10-16T12:44:33;2.47;;;0.93;;
16640;SDS011;8434;47.990;7.880;2022-10-16T12:47:20;3.28;;;1.17;;
16640;SDS011;8434;47.990;7.880;2022-10-16T12:53:17;3.72;;;0.85;;
16640;SDS011;8434;47.990;7.880;2022-10-16T12:56:04;1.20;;;0.90;;
16640;SDS011;8434;47.990;7.880;2022-10-16T12:58:56;1.17;;;1.08;;
16640;SDS011;8434;47.990;7.880;2022-10-16T13:01:50;6.38;;;1.75;;
16640;SDS011;8434;47.990;7.880;2022-10-16T13:04:40;4.72;;;1.15;;
16640;SDS011;8434;47.990;7.880;2022-10-16T13:07:32;1.15;;;1.10;;
16640;SDS011;8434;47.990;7.880;2022-10-16T13:10:25;2.35;;;1.08;;
16640;SDS011;8434;47.990;7.880;2022-10-16T13:13:21;2.17;;;1.10;;
16640;SDS011;8434;47.990;7.880;2022-10-16T13:16:11;1.10;;;1.00;;
16640;SDS011;8434;47.990;7.880;2022-10-16T13:19:00;1.60;;;1.23;;
16640;SDS011;8434;47.990;7.880;2022-10-16T13:21:49;3.22;;;1.42;;
16640;SDS011;8434;47.990;7.880;2022-10-16T13:24:41;1.95;;;1.13;;
16640;SDS011;8434;47.990;7.880;2022-10-16T13:27:32;1.55;;;1.20;;
16640;SDS011;8434;47.990;7.880;2022-10-16T13:30:21;3.20;;;1.10;;
16640;SDS011;8434;47.990;7.880;2022-10-16T13:33:07;2.08;;;1.30;;
16640;SDS011;8434;47.990;7.880;2022-10-16T13:35:57;1.13;;;1.02;;
16640;SDS011;8434;47.990;7.880;2022-10-16T13:38:42;2.78;;;1.75;;
16640;SDS011;8434;47.990;7.880;2022-10-16T13:41:27;3.70;;;1.33;;
16640;SDS011;8434;47.990;7.880;2022-10-16T13:44:14;2.25;;;1.10;;
16640;SDS011;8434;47.990;7.880;2022-10-16T13:47:00;1.42;;;1.15;;
16640;SDS011;8434;47.990;7.880;2022-10-16T13:49:46;1.48;;;1.30;;
16640;SDS011;8434;47.990;7.880;2022-10-16T13:52:31;3.05;;;1.27;;
16640;SDS011;8434;47.990;7.880;2022-10-16T13:55:17;1.15;;;1.00;;
16640;SDS011;8434;47.990;7.880;2022-10-16T13:58:07;3.85;;;1.23;;
16640;SDS011;8434;47.990;7.880;2022-10-16T14:00:57;5.18;;;1.23;;
16640;SDS011;8434;47.990;7.880;2022-10-16T14:03:43;2.38;;;1.27;;
16640;SDS011;8434;47.990;7.880;2022-10-16T14:06:29;2.53;;;1.00;;
16640;SDS011;8434;47.990;7.880;2022-10-16T14:09:14;1.30;;;1.20;;
16640;SDS011;8434;47.990;7.880;2022-10-16T14:12:02;2.35;;;1.20;;
16640;SDS011;8434;47.990;7.880;2022-10-16T14:14:48;1.40;;;1.20;;
16640;SDS011;8434;47.990;7.880;2022-10-16T14:17:35;4.38;;;1.30;;
16640;SDS011;8434;47.990;7.880;2022-10-16T14:20:21;2.60;;;1.38;;
16640;SDS011;8434;47.990;7.880;2022-10-16T14:23:18;1.52;;;1.20;;
16640;SDS011;8434;47.990;7.880;2022-10-16T14:26:14;2.72;;;1.15;;
16640;SDS011;8434;47.990;7.880;2022-10-16T14:29:04;2.65;;;1.20;;
16640;SDS011;8434;47.990;7.880;2022-10-16T14:31:55;1.73;;;1.10;;
16640;SDS011;8434;47.990;7.880;2022-10-16T14:34:42;1.45;;;1.27;;
16640;SDS011;8434;47.990;7.880;2022-10-16T14:37:27;2.33;;;1.23;;
16640;SDS011;8434;47.990;7.880;2022-10-16T14:40:13;1.77;;;1.02;;
16640;SDS011;8434;47.990;7.880;2022-10-16T14:42:59;1.63;;;1.25;;
16640;SDS011;8434;47.990;7.880;2022-10-16T14:45:49;2.50;;;1.13;;
16640;SDS011;8434;47.990;7.880;2022-10-16T14:48:35;3.75;;;1.23;;
16640;SDS011;8434;47.990;7.880;2022-10-16T14:51:22;7.38;;;1.30;;
16640;SDS011;8434;47.990;7.880;2022-10-16T14:56:54;2.65;;;1.00;;
16640;SDS011;8434;47.990;7.880;2022-10-16T14:59:41;1.42;;;1.15;;
16640;SDS011;8434;47.990;7.880;2022-10-16T15:02:28;2.95;;;1.23;;
16640;SDS011;8434;47.990;7.880;2022-10-16T15:05:15;4.20;;;1.02;;
16640;SDS011;8434;47.990;7.880;2022-10-16T15:08:02;3.50;;;1.23;;
16640;SDS011;8434;47.990;7.880;2022-10-16T15:10:48;5.00;;;1.60;;
16640;SDS011;8434;47.990;7.880;2022-10-16T15:13:33;1.85;;;1.40;;
16640;SDS011;8434;47.990;7.880;2022-10-16T15:16:18;1.33;;;1.23;;
16640;SDS011;8434;47.990;7.880;2022-10-16T15:19:03;4.45;;;1.10;;
16640;SDS011;8434;47.990;7.880;2022-10-16T15:21:48;4.50;;;1.20;;
16640;SDS011;8434;47.990;7.880;2022-10-16T15:24:35;6.07;;;1.65;;
16640;SDS011;8434;47.990;7.880;2022-10-16T15:27:20;7.80;;;1.65;;
16640;SDS011;8434;47.990;7.880;2022-10-16T15:30:06;6.25;;;1.33;;
16640;SDS011;8434;47.990;7.880;2022-10-16T15:32:51;5.82;;;1.30;;
16640;SDS011;8434;47.990;7.880;2022-10-16T15:35:36;3.75;;;1.50;;
16640;SDS011;8434;47.990;7.880;2022-10-16T15:38:21;5.32;;;1.80;;
16640;SDS011;8434;47.990;7.880;2022-10-16T15:41:08;6.32;;;1.95;;
16640;SDS011;8434;47.990;7.880;2022-10-16T15:43:53;3.40;;;1.17;;
16640;SDS011;8434;47.990;7.880;2022-10-16T15:46:37;2.80;;;1.50;;
16640;SDS011;8434;47.990;7.880;2022-10-16T15:49:23;5.72;;;2.00;;
16640;SDS011;8434;47.990;7.880;2022-10-16T15:52:07;3.65;;;1.95;;
16640;SDS011;8434;47.990;7.880;2022-10-16T15:54:52;2.08;;;1.67;;
16640;SDS011;8434;47.990;7.880;2022-10-16T15:57:39;2.85;;;1.52;;
16640;SDS011;8434;47.990;7.880;2022-10-16T16:00:25;3.85;;;1.95;;
16640;SDS011;8434;47.990;7.880;2022-10-16T16:03:10;6.47;;;2.30;;
16640;SDS011;8434;47.990;7.880;2022-10-16T16:05:55;8.25;;;1.90;;
16640;SDS011;8434;47.990;7.880;2022-10-16T16:08:41;8.55;;;2.10;;
16640;SDS011;8434;47.990;7.880;2022-10-16T16:11:26;6.30;;;2.33;;
16640;SDS011;8434;47.990;7.880;2022-10-16T16:14:12;8.50;;;1.67;;
16640;SDS011;8434;47.990;7.880;2022-10-16T16:16:57;5.70;;;1.60;;
16640;SDS011;8434;47.990;7.880;2022-10-16T16:19:42;8.90;;;1.90;;
16640;SDS011;8434;47.990;7.880;2022-10-16T16:22:27;7.10;;;2.10;;
16640;SDS011;8434;47.990;7.880;2022-10-16T16:25:13;5.17;;;1.90;;
16640;SDS011;8434;47.990;7.880;2022-10-16T16:27:57;7.43;;;2.10;;
16640;SDS011;8434;47.990;7.880;2022-10-16T16:30:44;6.37;;;1.90;;
16640;SDS011;8434;47.990;7.880;2022-10-16T16:33:29;7.33;;;1.83;;
16640;SDS011;8434;47.990;7.880;2022-10-16T16:36:14;18.63;;;3.23;;
16640;SDS011;8434;47.990;7.880;2022-10-16T16:38:59;7.30;;;2.00;;
16640;SDS011;8434;47.990;7.880;2022-10-16T16:41:45;9.93;;;2.47;;
16640;SDS011;8434;47.990;7.880;2022-10-16T16:44:30;6.03;;;2.03;;
16640;SDS011;8434;47.990;7.880;2022-10-16T16:47:16;6.70;;;2.07;;
16640;SDS011;8434;47.990;7.880;2022-10-16T16:50:01;7.70;;;3.03;;
16640;SDS011;8434;47.990;7.880;2022-10-16T16:52:48;8.20;;;2.50;;
16640;SDS011;8434;47.990;7.880;2022-10-16T16:55:33;5.67;;;2.43;;
16640;SDS011;8434;47.990;7.880;2022-10-16T16:58:18;6.47;;;2.20;;
16640;SDS011;8434;47.990;7.880;2022-10-16T17:01:03;10.00;;;1.90;;
16640;SDS011;8434;47.990;7.880;2022-10-16T17:03:53;12.10;;;2.20;;
16640;SDS011;8434;47.990;7.880;2022-10-16T17:06:38;6.23;;;2.27;;
16640;SDS011;8434;47.990;7.880;2022-10-16T17:09:24;6.97;;;2.50;;
16640;SDS011;8434;47.990;7.880;2022-10-16T17:12:09;4.93;;;2.50;;